Time;durP1;ratioP1;P1;durP2;ratioP2;P2;SDS_P1;SDS_P2;PMS_P1;PMS_P2;Temp;Humidity;BMP_temperature;BMP_pressure;BME280_temperature;BME280_humidity;BME280_pressure;Samples;Min_cycle;Max_cycle;Signal;HPM_P1;HPM_P2
2023/10/21 00:00:59;;;;;;;169.80;55.88;;;9.50;99.90;;;;;;5034324;28;20045;-76
2023/10/21 00:03:25;;;;;;;203.05;59.15;;;9.50;99.90;;;;;;5018796;28;20049;-76
2023/10/21 00:05:51;;;;;;;228.80;59.90;;;9.50;99.90;;;;;;5018154;28;20064;-78
2023/10/21 00:08:18;;;;;;;198.25;55.97;;;10.10;99.90;;;;;;5017648;28;20061;-76
2023/10/21 00:10:54;;;;;;;160.50;52.17;;;9.50;99.90;;;;;;5016856;28;20053;-77
2023/10/21 00:13:22;;;;;;;204.20;56.72;;;9.50;99.90;;;;;;5016428;28;20053;-77
2023/10/21 00:15:48;;;;;;;181.85;54.42;;;9.50;99.90;;;;;;4999839;28;20060;-76
2023/10/21 00:18:14;;;;;;;168.98;52.80;;;9.50;99.90;;;;;;5000331;28;20053;-76
2023/10/21 00:20:39;;;;;;;209.00;57.83;;;10.00;99.90;;;;;;4999238;28;20079;-77
2023/10/21 00:23:05;;;;;;;281.10;63.03;;;9.50;99.90;;;;;;4999381;28;20060;-77
2023/10/21 00:25:34;;;;;;;202.85;56.08;;;9.40;99.90;;;;;;5016464;28;20080;-78
2023/10/21 00:28:03;;;;;;;199.32;57.40;;;9.40;99.90;;;;;;5000812;28;20057;-77
2023/10/21 00:30:28;;;;;;;166.38;51.53;;;9.40;99.90;;;;;;5003754;28;20790;-76
2023/10/21 00:32:54;;;;;;;235.88;60.03;;;9.40;99.90;;;;;;4999795;28;20056;-78
2023/10/21 00:35:20;;;;;;;324.85;64.75;;;9.30;99.90;;;;;;5018775;28;20049;-77
2023/10/21 00:37:45;;;;;;;185.18;53.65;;;9.70;99.90;;;;;;5001607;28;20083;-78
2023/10/21 00:40:11;;;;;;;260.98;61.22;;;9.80;99.90;;;;;;4985696;28;20052;-77
2023/10/21 00:42:37;;;;;;;170.65;52.55;;;9.20;99.90;;;;;;5002002;28;20061;-77
2023/10/21 00:45:03;;;;;;;162.98;51.88;;;9.20;99.90;;;;;;5019247;28;20107;-77
2023/10/21 00:47:34;;;;;;;195.02;54.50;;;9.20;99.90;;;;;;5000595;28;20072;-77
2023/10/21 00:50:02;;;;;;;352.38;65.85;;;9.20;99.90;;;;;;5000235;28;20059;-77
2023/10/21 00:52:28;;;;;;;168.68;52.40;;;9.20;99.90;;;;;;4999927;28;20053;-77
2023/10/21 00:55:00;;;;;;;147.70;48.70;;;9.20;99.90;;;;;;5001883;28;20450;-77
2023/10/21 00:57:29;;;;;;;;;;;9.50;99.90;;;;;;5003287;28;20049;-77
2023/10/21 00:59:57;;;;;;;149.68;48.00;;;9.10;99.90;;;;;;5002848;28;19935;-77
2023/10/21 01:02:23;;;;;;;157.27;51.58;;;9.00;99.90;;;;;;5004256;28;20054;-78
2023/10/21 01:04:49;;;;;;;215.70;53.97;;;9.40;99.90;;;;;;5004593;28;20061;-77
2023/10/21 01:07:19;;;;;;;193.73;53.00;;;10.50;99.90;;;;;;5005268;28;20057;-77
2023/10/21 01:09:45;;;;;;;181.13;53.53;;;9.00;99.90;;;;;;5003395;28;20971;-77
2023/10/21 01:12:10;;;;;;;379.77;67.95;;;9.00;99.90;;;;;;5003527;28;20052;-77
2023/10/21 01:14:36;;;;;;;146.52;48.40;;;8.90;99.90;;;;;;5005500;28;20053;-77
2023/10/21 01:17:02;;;;;;;221.38;55.28;;;9.00;99.90;;;;;;5013339;28;20052;-77
2023/10/21 01:19:31;;;;;;;183.65;51.58;;;8.90;99.90;;;;;;5019982;28;20120;-77
2023/10/21 01:21:57;;;;;;;169.65;50.88;;;8.90;99.90;;;;;;5018977;28;20139;-77
2023/10/21 01:24:25;;;;;;;183.63;50.25;;;8.90;99.90;;;;;;5036574;28;20196;-77
2023/10/21 01:26:53;;;;;;;149.00;48.42;;;8.80;99.90;;;;;;5020010;28;20056;-78
2023/10/21 01:29:19;;;;;;;229.40;55.60;;;8.80;99.90;;;;;;5037123;28;20049;-78
2023/10/21 01:31:45;;;;;;;155.07;48.38;;;8.80;99.90;;;;;;5036618;28;20045;-76
2023/10/21 01:34:11;;;;;;;174.75;50.17;;;8.90;99.90;;;;;;5019743;28;20084;-77
2023/10/21 01:36:36;;;;;;;163.07;50.38;;;8.90;99.90;;;;;;5019452;28;20045;-78
2023/10/21 01:39:04;;;;;;;182.90;51.20;;;8.80;99.90;;;;;;5019217;28;20128;-76
2023/10/21 01:41:30;;;;;;;237.63;55.45;;;8.80;99.90;;;;;;5018243;28;20088;-77
2023/10/21 01:43:56;;;;;;;145.60;46.95;;;9.00;99.90;;;;;;5035094;28;20076;-77
2023/10/21 01:46:22;;;;;;;159.88;51.30;;;8.80;99.90;;;;;;5026750;28;20088;-77
2023/10/21 01:48:49;;;;;;;186.75;53.20;;;8.80;99.90;;;;;;5016628;28;20046;-77
2023/10/21 01:51:15;;;;;;;266.35;59.90;;;8.90;99.90;;;;;;5014863;28;20045;-77
2023/10/21 01:53:43;;;;;;;284.67;60.00;;;9.30;99.90;;;;;;5015574;28;20103;-77
2023/10/21 01:56:09;;;;;;;162.52;50.55;;;8.80;99.90;;;;;;5015664;28;20072;-78
2023/10/21 01:58:36;;;;;;;168.35;49.90;;;8.80;99.90;;;;;;5015222;28;20498;-77
2023/10/21 02:01:09;;;;;;;135.02;47.53;;;8.80;99.90;;;;;;5018090;28;20079;-78
2023/10/21 02:03:35;;;;;;;164.10;50.88;;;9.10;99.90;;;;;;5003179;28;20049;-75
2023/10/21 02:06:07;;;;;;;112.65;43.15;;;8.80;99.90;;;;;;5019221;28;20053;-77
2023/10/21 02:08:33;;;;;;;316.73;61.90;;;8.80;99.90;;;;;;5020087;28;20057;-77
2023/10/21 02:10:59;;;;;;;182.35;51.55;;;9.20;99.90;;;;;;5019449;28;20050;-78
2023/10/21 02:13:25;;;;;;;144.68;48.28;;;9.00;99.90;;;;;;5019831;28;20052;-76
2023/10/21 02:15:52;;;;;;;176.07;52.05;;;8.80;99.90;;;;;;5003404;28;20057;-77
2023/10/21 02:18:18;;;;;;;150.50;49.20;;;9.20;99.90;;;;;;5002865;28;20057;-77
2023/10/21 02:20:43;;;;;;;176.45;50.72;;;8.80;99.90;;;;;;5003639;28;20865;-75
2023/10/21 02:23:09;;;;;;;218.73;53.33;;;9.10;99.90;;;;;;5004012;28;20203;-77
2023/10/21 02:25:38;;;;;;;149.52;47.95;;;8.90;99.90;;;;;;5003703;28;20061;-77
2023/10/21 02:28:05;;;;;;;134.07;47.28;;;9.00;99.90;;;;;;4986972;28;20565;-77
2023/10/21 02:30:30;;;;;;;139.25;46.20;;;8.90;99.90;;;;;;4987212;28;20115;-76
2023/10/21 02:32:57;;;;;;;225.75;54.05;;;8.90;99.90;;;;;;5002901;28;20106;-77
2023/10/21 02:35:22;;;;;;;192.10;51.55;;;8.90;99.90;;;;;;4981109;28;20045;-77
2023/10/21 02:37:48;;;;;;;146.32;50.20;;;8.80;99.90;;;;;;5003285;28;20754;-79
2023/10/21 02:40:15;;;;;;;265.63;57.72;;;8.80;99.90;;;;;;4987347;28;20081;-77
2023/10/21 02:42:42;;;;;;;190.27;52.13;;;8.80;99.90;;;;;;5003406;28;20045;-77
2023/10/21 02:45:08;;;;;;;280.42;57.85;;;8.80;99.90;;;;;;4987227;28;20350;-77
2023/10/21 02:47:35;;;;;;;198.52;52.47;;;8.80;99.90;;;;;;5003006;28;20064;-77
2023/10/21 02:50:02;;;;;;;223.70;53.40;;;8.70;99.90;;;;;;4987210;28;20422;-77
2023/10/21 02:52:35;;;;;;;144.07;46.05;;;8.70;99.90;;;;;;5002638;28;20899;-78
2023/10/21 02:55:01;;;;;;;281.58;58.45;;;8.70;99.90;;;;;;5013354;28;20061;-76
2023/10/21 02:57:29;;;;;;;228.57;55.60;;;8.70;99.90;;;;;;5000651;28;20061;-78
2023/10/21 02:59:55;;;;;;;134.43;45.80;;;8.70;99.90;;;;;;5002769;28;20084;-78
2023/10/21 03:02:21;;;;;;;151.93;47.97;;;8.80;99.90;;;;;;5018429;28;20128;-77
2023/10/21 03:04:50;;;;;;;216.00;53.03;;;8.70;99.90;;;;;;4986077;28;20081;-77
2023/10/21 03:07:15;;;;;;;167.70;48.17;;;8.70;99.90;;;;;;5001774;28;20502;-77
2023/10/21 03:09:41;;;;;;;175.30;50.20;;;8.70;99.90;;;;;;5018486;28;20075;-77
2023/10/21 03:12:07;;;;;;;274.65;58.72;;;8.70;99.90;;;;;;5001983;28;20139;-78
2023/10/21 03:14:33;;;;;;;156.77;48.78;;;8.80;99.90;;;;;;5009254;28;20053;-77
2023/10/21 03:16:59;;;;;;;149.65;47.70;;;8.80;99.90;;;;;;5017210;28;20148;-77
2023/10/21 03:19:27;;;;;;;187.52;50.10;;;8.80;99.90;;;;;;5016320;28;20655;-77
2023/10/21 03:21:56;;;;;;;173.55;48.47;;;8.80;99.90;;;;;;5014702;28;20850;-79
2023/10/21 03:24:22;;;;;;;167.20;47.63;;;8.80;99.90;;;;;;5016210;28;20064;-77
2023/10/21 03:26:48;;;;;;;177.65;48.05;;;8.80;99.90;;;;;;5016613;28;20498;-77
2023/10/21 03:29:13;;;;;;;216.55;53.92;;;8.80;99.90;;;;;;5018049;28;20053;-77
2023/10/21 03:31:39;;;;;;;181.10;49.63;;;8.80;99.90;;;;;;5031861;28;20104;-77
2023/10/21 03:34:05;;;;;;;133.57;45.30;;;8.80;99.90;;;;;;5017856;28;20057;-78
2023/10/21 03:36:31;;;;;;;209.65;52.03;;;8.80;99.90;;;;;;5016961;28;20056;-76
2023/10/21 03:38:56;;;;;;;154.20;46.45;;;8.90;99.90;;;;;;5001893;28;20056;-79
2023/10/21 03:41:26;;;;;;;153.60;45.92;;;11.30;99.90;;;;;;5018718;28;20084;-76
2023/10/21 03:43:52;;;;;;;212.40;48.10;;;8.90;99.90;;;;;;5018037;28;20175;-77
2023/10/21 03:46:17;;;;;;;209.60;50.83;;;8.90;99.90;;;;;;5033816;28;21073;-77
2023/10/21 03:48:46;;;;;;;124.50;41.97;;;9.50;99.90;;;;;;5017421;28;20042;-77
2023/10/21 03:51:12;;;;;;;168.77;45.72;;;8.90;99.90;;;;;;4999535;28;20053;-77
2023/10/21 03:53:43;;;;;;;155.38;43.03;;;8.90;99.90;;;;;;5016902;28;20434;-74
2023/10/21 03:56:11;;;;;;;133.73;43.03;;;8.90;99.90;;;;;;5015225;28;20084;-76
2023/10/21 03:58:38;;;;;;;182.90;46.83;;;8.90;99.90;;;;;;5014761;28;20770;-78
2023/10/21 04:01:05;;;;;;;142.30;43.28;;;9.00;99.90;;;;;;5016329;28;20152;-77
2023/10/21 04:03:31;;;;;;;153.32;43.35;;;9.40;99.90;;;;;;5015808;28;20048;-76
2023/10/21 04:05:57;;;;;;;109.85;37.72;;;8.90;99.90;;;;;;5001019;28;20694;-78
2023/10/21 04:08:24;;;;;;;139.43;41.50;;;9.00;99.90;;;;;;5000769;28;20076;-78
2023/10/21 04:10:52;;;;;;;159.40;43.90;;;9.00;99.90;;;;;;5017734;28;20136;-78
2023/10/21 04:13:18;;;;;;;154.68;42.47;;;9.10;99.90;;;;;;5017181;28;21096;-77
2023/10/21 04:15:44;;;;;;;118.80;39.22;;;9.20;99.90;;;;;;5000935;28;20156;-77
2023/10/21 04:18:10;;;;;;;112.82;38.22;;;9.20;99.90;;;;;;5001572;28;20041;-78
2023/10/21 04:20:36;;;;;;;103.45;39.47;;;10.50;99.90;;;;;;5001071;28;20064;-77
2023/10/21 04:23:02;;;;;;;135.57;39.70;;;12.00;99.90;;;;;;4984948;28;20132;-78
2023/10/21 04:25:28;;;;;;;123.10;39.80;;;9.20;99.90;;;;;;4999964;28;20144;-76
2023/10/21 04:27:56;;;;;;;101.05;36.42;;;9.20;99.90;;;;;;5016938;28;20045;-77
2023/10/21 04:30:25;;;;;;;106.28;37.75;;;9.20;99.90;;;;;;5000474;28;20049;-77
2023/10/21 04:33:08;;;;;;;111.28;38.47;;;9.30;99.90;;;;;;4996779;28;20471;-76
2023/10/21 04:35:34;;;;;;;114.70;39.72;;;9.20;99.90;;;;;;5011964;28;20041;-78
2023/10/21 04:38:00;;;;;;;160.60;41.88;;;9.20;99.90;;;;;;4999898;28;20384;-78
2023/10/21 04:40:28;;;;;;;161.38;43.17;;;9.20;99.90;;;;;;4999995;28;20053;-79
2023/10/21 04:42:54;;;;;;;95.60;35.40;;;9.10;99.90;;;;;;4998633;28;20445;-77
2023/10/21 04:45:20;;;;;;;123.88;39.00;;;9.20;99.90;;;;;;4998644;28;20046;-78
2023/10/21 04:47:46;;;;;;;129.40;40.20;;;9.10;99.90;;;;;;5015917;28;20057;-77
2023/10/21 04:50:11;;;;;;;117.50;37.05;;;9.10;99.90;;;;;;5016429;28;20042;-77
2023/10/21 04:52:38;;;;;;;95.15;35.10;;;9.10;99.90;;;;;;4981454;28;20089;-78
2023/10/21 04:55:04;;;;;;;122.03;38.55;;;10.20;99.90;;;;;;4996776;28;20136;-77
2023/10/21 04:57:30;;;;;;;95.03;35.70;;;9.10;99.90;;;;;;4979160;28;20049;-78
2023/10/21 04:59:56;;;;;;;97.72;35.00;;;9.10;99.90;;;;;;4995124;28;20462;-77
2023/10/21 05:02:22;;;;;;;150.20;39.05;;;9.10;99.90;;;;;;5014394;28;20136;-77
2023/10/21 05:04:50;;;;;;;101.22;35.83;;;9.30;99.90;;;;;;4998916;28;20057;-78
2023/10/21 05:07:16;;;;;;;99.95;35.97;;;9.10;99.90;;;;;;5001010;28;20384;-78
2023/10/21 05:09:41;;;;;;;93.78;33.78;;;9.10;99.90;;;;;;4984653;28;20053;-77
2023/10/21 05:12:10;;;;;;;123.53;37.75;;;9.20;99.90;;;;;;5001042;28;20052;-79
2023/10/21 05:14:36;;;;;;;274.48;48.33;;;9.20;99.90;;;;;;5009673;28;20533;-78
2023/10/21 05:17:02;;;;;;;87.45;33.47;;;9.20;99.90;;;;;;5020567;28;20996;-77
2023/10/21 05:19:28;;;;;;;108.35;35.92;;;9.10;99.90;;;;;;5020814;28;20115;-77
2023/10/21 05:21:54;;;;;;;198.25;43.95;;;9.40;99.90;;;;;;5037461;28;20053;-77
2023/10/21 05:24:22;;;;;;;181.32;42.88;;;9.10;99.90;;;;;;5021873;28;20545;-77
2023/10/21 05:26:48;;;;;;;159.00;39.30;;;9.40;99.90;;;;;;5021237;28;20168;-78
2023/10/21 05:29:14;;;;;;;120.78;37.70;;;9.20;99.90;;;;;;5021566;28;20140;-77
2023/10/21 05:31:40;;;;;;;132.73;37.83;;;9.10;99.90;;;;;;5022453;28;20494;-78
2023/10/21 05:34:06;;;;;;;98.90;34.83;;;9.20;99.90;;;;;;5016477;28;20111;-76
2023/10/21 05:36:32;;;;;;;102.53;35.22;;;9.10;99.90;;;;;;5002710;28;20141;-75
2023/10/21 05:39:00;;;;;;;235.32;45.05;;;9.30;99.90;;;;;;5020955;28;20144;-77
2023/10/21 05:41:25;;;;;;;131.60;36.60;;;9.20;99.90;;;;;;5021489;28;20053;-78
2023/10/21 05:43:51;;;;;;;118.63;36.67;;;9.20;99.90;;;;;;5037833;28;20049;-76
2023/10/21 05:46:17;;;;;;;136.68;37.78;;;8.20;99.90;;;;;;5004509;28;20054;-77
2023/10/21 05:48:43;;;;;;;96.90;34.28;;;9.30;99.90;;;;;;5020048;28;20049;-78
2023/10/21 05:51:09;;;;;;;138.77;39.20;;;9.50;99.90;;;;;;5035763;28;20045;-76
2023/10/21 05:53:34;;;;;;;80.43;31.27;;;9.50;99.90;;;;;;5019247;28;20049;-77
2023/10/21 05:56:00;;;;;;;130.30;36.65;;;9.40;99.90;;;;;;5002009;28;20049;-75
2023/10/21 05:58:29;;;;;;;211.30;43.72;;;9.30;99.90;;;;;;5019054;28;20042;-77
2023/10/21 06:00:54;;;;;;;147.82;38.50;;;9.40;99.90;;;;;;5018915;28;20056;-77
2023/10/21 06:03:23;;;;;;;84.05;31.77;;;9.30;99.90;;;;;;5021224;28;20045;-76
2023/10/21 06:05:52;;;;;;;131.02;37.58;;;9.20;99.90;;;;;;5021704;28;20765;-77
2023/10/21 06:08:17;;;;;;;146.60;38.72;;;9.30;99.90;;;;;;5019935;28;20046;-78
2023/10/21 06:10:44;;;;;;;107.55;35.53;;;9.30;99.90;;;;;;5034890;28;20049;-77
2023/10/21 06:13:10;;;;;;;156.48;41.55;;;9.30;99.90;;;;;;5012427;28;20057;-78
2023/10/21 06:15:37;;;;;;;78.03;30.95;;;9.30;99.90;;;;;;4984963;28;20366;-77
2023/10/21 06:18:04;;;;;;;75.15;30.23;;;9.40;99.90;;;;;;5017936;28;20529;-77
2023/10/21 06:20:31;;;;;;;167.63;41.25;;;9.40;99.90;;;;;;5002163;28;20128;-75
2023/10/21 06:22:57;;;;;;;125.28;36.40;;;9.40;99.90;;;;;;5002244;28;20115;-77
2023/10/21 06:25:24;;;;;;;66.40;30.65;;;9.40;99.90;;;;;;5002168;28;20052;-79
2023/10/21 06:27:49;;;;;;;106.45;35.03;;;9.50;99.90;;;;;;5007914;28;20648;-77
2023/10/21 06:30:15;;;;;;;137.65;37.40;;;9.40;99.90;;;;;;5004243;28;20049;-78
2023/10/21 06:32:41;;;;;;;114.75;34.95;;;9.50;99.90;;;;;;5006978;28;20052;-77
2023/10/21 06:35:08;;;;;;;96.95;30.95;;;10.00;99.90;;;;;;4996586;28;20064;-76
2023/10/21 06:37:37;;;;;;;108.88;34.55;;;9.60;99.90;;;;;;5003993;28;20049;-77
2023/10/21 06:40:04;;;;;;;83.45;31.13;;;9.60;99.90;;;;;;5003345;28;20049;-77
2023/10/21 06:42:30;;;;;;;142.45;36.42;;;9.60;99.90;;;;;;5004817;28;20908;-79
2023/10/21 06:44:56;;;;;;;176.20;39.50;;;9.70;99.90;;;;;;5001103;28;20111;-75
2023/10/21 06:47:21;;;;;;;78.30;29.92;;;9.70;99.90;;;;;;5015800;28;20087;-79
2023/10/21 06:49:47;;;;;;;153.70;38.45;;;9.80;99.90;;;;;;4993629;28;20392;-77
2023/10/21 06:52:13;;;;;;;175.13;38.85;;;9.80;99.90;;;;;;5011073;28;20076;-77
2023/10/21 06:54:39;;;;;;;169.38;38.33;;;9.80;99.90;;;;;;5001760;28;20049;-76
2023/10/21 06:57:09;;;;;;;109.97;33.83;;;9.80;99.90;;;;;;5001496;28;20056;-79
2023/10/21 06:59:35;;;;;;;116.82;33.55;;;9.90;99.90;;;;;;5010236;28;20056;-78
2023/10/21 07:02:01;;;;;;;60.05;27.88;;;9.90;99.90;;;;;;4999485;28;20053;-77
2023/10/21 07:04:30;;;;;;;78.07;29.95;;;9.90;99.90;;;;;;5003978;28;20041;-79
2023/10/21 07:06:56;;;;;;;91.45;30.48;;;10.00;99.90;;;;;;4998822;28;20085;-77
2023/10/21 07:09:22;;;;;;;177.98;39.92;;;10.00;99.90;;;;;;5000685;28;20087;-79
2023/10/21 07:11:47;;;;;;;93.63;32.83;;;10.00;99.90;;;;;;5008774;28;20052;-77
2023/10/21 07:14:13;;;;;;;85.18;31.00;;;10.10;99.90;;;;;;5008771;28;20050;-77
2023/10/21 07:16:40;;;;;;;247.73;45.90;;;10.10;99.90;;;;;;5018485;28;20057;-76
2023/10/21 07:19:14;;;;;;;79.45;30.40;;;10.20;99.90;;;;;;5022192;28;20052;-77
2023/10/21 07:21:41;;;;;;;92.80;31.27;;;10.20;99.90;;;;;;5025280;28;20128;-77
2023/10/21 07:24:08;;;;;;;130.43;35.58;;;10.20;99.90;;;;;;5023635;28;20080;-76
2023/10/21 07:26:36;;;;;;;88.90;32.38;;;10.20;99.90;;;;;;5018989;28;20753;-77
2023/10/21 07:29:02;;;;;;;116.00;33.53;;;11.30;99.90;;;;;;5032451;28;20033;-77
2023/10/21 07:31:30;;;;;;;106.35;33.03;;;10.30;99.90;;;;;;5016807;28;20088;-76
2023/10/21 07:33:56;;;;;;;111.35;34.30;;;10.40;99.90;;;;;;5018423;28;20080;-78
2023/10/21 07:36:24;;;;;;;97.88;32.15;;;10.40;99.90;;;;;;5013647;28;20084;-78
2023/10/21 07:38:50;;;;;;;117.68;31.98;;;10.40;99.90;;;;;;5015806;28;20053;-76
2023/10/21 07:41:16;;;;;;;88.63;31.17;;;10.50;99.90;;;;;;5015725;28;20051;-76
2023/10/21 07:43:42;;;;;;;98.20;32.55;;;10.60;99.90;;;;;;5016394;28;20087;-76
2023/10/21 07:46:08;;;;;;;62.65;26.20;;;10.60;99.90;;;;;;5015936;28;20049;-80
2023/10/21 07:48:33;;;;;;;82.18;29.80;;;10.60;99.90;;;;;;5033903;28;20045;-77
2023/10/21 07:50:59;;;;;;;125.50;34.00;;;10.70;99.90;;;;;;5016713;28;20586;-75
2023/10/21 07:53:25;;;;;;;117.20;33.28;;;10.70;99.90;;;;;;5016262;28;20131;-77
2023/10/21 07:55:51;;;;;;;108.32;31.92;;;9.40;99.90;;;;;;5017359;28;20049;-76
2023/10/21 07:58:17;;;;;;;92.38;32.13;;;10.80;99.90;;;;;;5016152;28;20041;-77
2023/10/21 08:00:43;;;;;;;71.65;29.13;;;10.90;99.90;;;;;;5030882;28;20108;-76
2023/10/21 08:03:08;;;;;;;108.28;33.13;;;10.90;99.90;;;;;;5014770;28;20061;-76
2023/10/21 08:05:34;;;;;;;113.93;32.50;;;11.00;99.90;;;;;;5033017;28;20053;-76
2023/10/21 08:08:00;;;;;;;72.60;28.70;;;11.00;99.90;;;;;;5016791;28;20507;-76
2023/10/21 08:10:25;;;;;;;79.85;29.20;;;11.00;99.90;;;;;;5015317;28;20041;-78
2023/10/21 08:12:51;;;;;;;78.03;29.58;;;11.10;99.90;;;;;;5016812;28;20049;-79
2023/10/21 08:15:17;;;;;;;81.90;30.55;;;11.20;99.90;;;;;;5017274;28;20317;-76
2023/10/21 08:17:43;;;;;;;140.20;35.55;;;11.20;99.90;;;;;;5019247;28;20049;-76
2023/10/21 08:20:09;;;;;;;94.28;32.13;;;11.30;99.90;;;;;;5017877;28;20049;-76
2023/10/21 08:22:35;;;;;;;89.03;31.42;;;11.40;99.90;;;;;;5018506;28;20085;-76
2023/10/21 08:25:02;;;;;;;75.25;30.55;;;12.70;99.90;;;;;;5017546;28;20089;-76
2023/10/21 08:27:28;;;;;;;120.18;35.45;;;11.80;99.90;;;;;;5017540;28;20108;-76
2023/10/21 08:29:53;;;;;;;80.43;29.60;;;11.90;99.90;;;;;;5000775;28;20569;-76
2023/10/21 08:32:19;;;;;;;123.72;36.28;;;9.40;99.90;;;;;;5016820;28;20142;-76
2023/10/21 08:34:45;;;;;;;53.78;27.48;;;12.20;99.90;;;;;;5013382;28;20188;-76
2023/10/21 08:37:11;;;;;;;69.03;29.38;;;12.30;99.90;;;;;;5015476;28;20136;-76
2023/10/21 08:39:37;;;;;;;85.93;31.67;;;12.50;99.90;;;;;;5014990;28;20535;-75
2023/10/21 08:42:03;;;;;;;68.57;28.38;;;12.60;99.90;;;;;;5032513;28;20045;-75
2023/10/21 08:44:30;;;;;;;98.57;34.38;;;12.80;99.90;;;;;;5015612;28;20719;-76
2023/10/21 08:46:58;;;;;;;95.53;32.40;;;12.90;99.90;;;;;;5015564;28;20061;-76
2023/10/21 08:49:24;;;;;;;70.00;28.73;;;12.90;99.90;;;;;;5014718;28;20410;-76
2023/10/21 08:51:52;;;;;;;54.13;26.48;;;12.70;99.90;;;;;;5019484;28;20053;-76
2023/10/21 08:54:19;;;;;;;57.88;26.35;;;13.00;99.90;;;;;;5018067;28;20080;-75
2023/10/21 08:56:45;;;;;;;65.28;26.95;;;13.10;99.90;;;;;;5016652;28;20078;-75
2023/10/21 08:59:11;;;;;;;48.30;24.85;;;13.10;99.90;;;;;;5016632;28;21022;-75
2023/10/21 09:01:38;;;;;;;49.20;24.35;;;13.20;99.90;;;;;;5015919;28;20271;-74
2023/10/21 09:04:04;;;;;;;71.50;28.40;;;13.30;99.90;;;;;;5016838;28;20521;-77
2023/10/21 09:06:32;;;;;;;63.47;26.77;;;13.30;99.90;;;;;;5015928;28;20950;-77
2023/10/21 09:08:58;;;;;;;59.55;26.58;;;13.30;99.90;;;;;;5027710;28;20565;-74
2023/10/21 09:11:26;;;;;;;41.72;22.45;;;13.30;99.90;;;;;;5031264;28;20033;-76
2023/10/21 09:13:56;;;;;;;45.22;23.33;;;13.20;99.90;;;;;;5015605;28;20065;-78
2023/10/21 09:16:31;;;;;;;70.68;27.80;;;13.30;99.90;;;;;;5026436;28;20061;-77
2023/10/21 09:19:01;;;;;;;48.10;23.80;;;13.40;99.90;;;;;;5010718;28;20057;-77
2023/10/21 09:21:38;;;;;;;30.90;19.63;;;13.50;99.90;;;;;;5017575;28;20148;-78
2023/10/21 09:24:12;;;;;;;59.70;26.73;;;13.60;99.90;;;;;;5018830;28;20038;-78
2023/10/21 09:26:40;;;;;;;32.90;19.30;;;13.60;99.90;;;;;;5021335;28;20137;-81
2023/10/21 09:29:11;;;;;;;32.00;20.10;;;13.70;99.90;;;;;;5039098;28;20139;-79
2023/10/21 09:31:53;;;;;;;42.05;21.52;;;13.80;99.90;;;;;;5022665;28;20634;-77
2023/10/21 09:34:35;;;;;;;43.40;22.17;;;13.90;99.90;;;;;;5020851;28;20056;-77
2023/10/21 09:37:03;;;;;;;46.00;22.50;;;13.90;99.90;;;;;;5020664;28;20073;-79
2023/10/21 09:39:32;;;;;;;36.28;17.55;;;13.90;99.90;;;;;;5019690;28;20080;-78
2023/10/21 09:42:02;;;;;;;27.42;15.77;;;13.90;99.90;;;;;;5020669;28;20064;-77
2023/10/21 09:44:29;;;;;;;32.75;16.17;;;15.40;99.90;;;;;;5022234;28;20108;-79
2023/10/21 09:46:57;;;;;;;39.25;19.77;;;14.00;99.90;;;;;;5022640;28;20052;-79
2023/10/21 09:49:29;;;;;;;42.75;18.73;;;13.90;99.90;;;;;;5022219;28;20111;-79
2023/10/21 09:52:12;;;;;;;32.15;16.38;;;14.00;99.90;;;;;;5021227;28;20084;-80
2023/10/21 09:54:47;;;;;;;;;;;14.00;99.90;;;;;;5027028;28;20064;-79
2023/10/21 09:57:13;;;;;;;46.95;18.48;;;14.00;99.90;;;;;;5037284;28;19932;-79
2023/10/21 09:59:40;;;;;;;37.42;16.75;;;14.00;99.90;;;;;;5036485;28;20049;-77
2023/10/21 10:02:09;;;;;;;16.08;11.07;;;13.90;99.90;;;;;;5034959;28;20487;-76
2023/10/21 10:04:35;;;;;;;18.30;9.55;;;13.90;99.90;;;;;;5018553;28;20055;-79
2023/10/21 10:07:06;;;;;;;14.25;8.02;;;13.80;99.90;;;;;;5019683;28;20144;-80
2023/10/21 10:09:37;;;;;;;16.05;8.98;;;13.70;99.90;;;;;;5019955;28;20053;-78
2023/10/21 10:12:17;;;;;;;17.10;9.77;;;13.70;99.90;;;;;;5019261;28;20049;-77
2023/10/21 10:14:44;;;;;;;12.32;6.32;;;13.70;99.90;;;;;;5018978;28;20057;-79
2023/10/21 10:17:10;;;;;;;13.63;6.70;;;13.70;99.90;;;;;;5019448;28;20060;-80
2023/10/21 10:19:44;;;;;;;16.38;8.73;;;13.60;99.90;;;;;;5001191;28;20041;-80
2023/10/21 10:22:42;;;;;;;17.17;7.22;;;13.60;99.90;;;;;;5017717;28;20073;-76
2023/10/21 10:25:11;;;;;;;14.70;6.75;;;13.60;99.90;;;;;;4983739;28;20147;-79
2023/10/21 10:27:41;;;;;;;17.27;8.50;;;13.60;99.90;;;;;;5018257;28;20049;-77
2023/10/21 10:30:19;;;;;;;12.52;5.22;;;13.60;99.90;;;;;;5014580;28;20057;-78
2023/10/21 10:32:49;;;;;;;11.80;6.60;;;13.60;99.90;;;;;;5037242;28;20084;-85
2023/10/21 10:35:37;;;;;;;10.40;5.80;;;13.60;99.90;;;;;;5020147;28;20064;-80
2023/10/21 10:38:25;;;;;;;7.47;3.70;;;13.60;99.90;;;;;;5019990;28;20154;-79
2023/10/21 10:41:18;;;;;;;10.15;4.82;;;13.60;99.90;;;;;;5006773;28;20100;-81
2023/10/21 10:44:01;;;;;;;6.25;3.92;;;13.60;99.90;;;;;;5019993;28;20042;-78
2023/10/21 10:46:30;;;;;;;11.15;4.55;;;13.80;99.90;;;;;;5019592;28;20133;-77
2023/10/21 10:49:00;;;;;;;7.05;3.40;;;13.90;99.90;;;;;;5018600;28;20068;-78
2023/10/21 10:51:28;;;;;;;6.30;2.70;;;14.10;99.90;;;;;;5021085;28;20073;-82
2023/10/21 10:53:59;;;;;;;5.40;2.40;;;14.40;99.90;;;;;;5020228;28;20146;-81
2023/10/21 10:56:39;;;;;;;4.15;1.55;;;14.50;99.90;;;;;;5017584;28;20510;-81
2023/10/21 10:59:05;;;;;;;6.57;2.42;;;14.50;99.90;;;;;;5018506;28;20048;-78
2023/10/21 11:01:31;;;;;;;8.02;2.50;;;14.40;99.90;;;;;;5018065;28;20095;-77
2023/10/21 11:04:01;;;;;;;5.38;2.03;;;14.30;99.90;;;;;;5016940;28;20227;-79
2023/10/21 11:07:03;;;;;;;5.35;1.85;;;14.30;99.90;;;;;;5001704;23;20073;-81
2023/10/21 11:09:38;;;;;;;5.68;1.45;;;14.30;99.90;;;;;;4954196;28;20117;-77
2023/10/21 11:12:06;;;;;;;6.00;1.55;;;14.30;99.90;;;;;;4954860;28;20050;-78
2023/10/21 11:14:33;;;;;;;4.70;1.65;;;14.20;99.90;;;;;;4955833;28;20501;-84
2023/10/21 11:16:59;;;;;;;4.65;1.75;;;14.20;99.90;;;;;;4958865;28;20065;-80
2023/10/21 11:19:25;;;;;;;2.40;1.35;;;14.20;99.90;;;;;;4961772;28;20062;-79
2023/10/21 11:21:51;;;;;;;4.47;1.20;;;14.10;99.90;;;;;;4964240;28;20051;-79
2023/10/21 11:24:19;;;;;;;4.50;1.00;;;13.90;99.90;;;;;;4943847;28;20050;-82
2023/10/21 11:26:45;;;;;;;2.03;0.77;;;14.00;99.90;;;;;;4960931;28;20089;-80
2023/10/21 11:29:12;;;;;;;3.72;1.45;;;14.00;99.90;;;;;;4964193;28;20470;-80
2023/10/21 11:31:38;;;;;;;1.45;0.70;;;14.00;99.90;;;;;;4964471;28;20065;-79
2023/10/21 11:34:19;;;;;;;4.53;1.33;;;14.10;99.90;;;;;;4985391;28;20459;-78
2023/10/21 11:36:48;;;;;;;5.05;1.10;;;14.10;99.90;;;;;;4976168;28;20058;-81
2023/10/21 11:39:21;;;;;;;2.78;1.10;;;14.00;99.90;;;;;;4975571;28;20134;-77
2023/10/21 11:41:52;;;;;;;4.13;1.02;;;13.90;99.90;;;;;;4961411;28;20042;-79
2023/10/21 11:44:27;;;;;;;4.55;0.50;;;13.90;99.90;;;;;;4957601;28;20500;-80
2023/10/21 11:47:03;;;;;;;5.60;1.55;;;13.90;99.90;;;;;;4965784;28;20054;-79
2023/10/21 11:49:37;;;;;;;4.20;0.60;;;13.90;99.90;;;;;;4954194;28;20685;-77
2023/10/21 11:52:03;;;;;;;3.28;0.90;;;14.00;99.90;;;;;;4953016;28;20047;-82
2023/10/21 11:54:46;;;;;;;3.45;0.70;;;14.00;99.90;;;;;;4976300;28;20117;-78
2023/10/21 12:19:17;;;;;;;3.22;0.60;;;13.60;99.90;;;;;;4995156;28;20057;-74
2023/10/21 12:39:44;;;;;;;1.50;0.20;;;13.60;99.90;;;;;;4997909;28;20045;-76
2023/10/21 12:42:25;;;;;;;1.98;0.30;;;13.70;99.90;;;;;;5003860;28;20669;-79
2023/10/21 12:45:08;;;;;;;4.37;0.20;;;13.70;99.90;;;;;;4986570;28;20127;-84
2023/10/21 12:47:34;;;;;;;2.95;0.38;;;13.60;99.90;;;;;;5004620;28;20071;-74
2023/10/21 12:49:59;;;;;;;1.77;0.30;;;13.40;99.90;;;;;;4999841;28;20486;-76
2023/10/21 12:52:25;;;;;;;4.60;0.45;;;13.40;99.90;;;;;;5008997;28;20055;-83
2023/10/21 12:54:53;;;;;;;2.88;0.40;;;13.30;99.90;;;;;;5002654;28;20045;-80
2023/10/21 12:57:21;;;;;;;3.75;0.40;;;13.20;99.90;;;;;;4999657;28;20045;-79
2023/10/21 12:59:46;;;;;;;1.92;0.43;;;13.10;99.90;;;;;;5008590;28;20045;-77
2023/10/21 13:02:12;;;;;;;1.15;0.30;;;13.10;99.90;;;;;;5003432;28;20092;-76
2023/10/21 13:04:40;;;;;;;2.83;0.30;;;13.00;99.90;;;;;;5000877;28;20045;-77
2023/10/21 13:07:07;;;;;;;3.28;0.30;;;13.10;99.90;;;;;;4997194;28;20056;-81
2023/10/21 13:09:33;;;;;;;2.17;0.35;;;13.10;99.90;;;;;;5000141;28;20524;-74
2023/10/21 13:12:00;;;;;;;5.75;0.40;;;11.30;99.90;;;;;;4988297;28;20310;-75
2023/10/21 13:14:28;;;;;;;4.00;0.30;;;13.20;99.90;;;;;;4996312;28;20285;-78